Time;durP1;ratioP1;P1;durP2;ratioP2;P2;SDS_P1;SDS_P2;PMS_P1;PMS_P2;Temp;Humidity;BMP_temperature;BMP_pressure;BME280_temperature;BME280_humidity;BME280_pressure;Samples;Min_cycle;Max_cycle;Signal;HPM_P1;HPM_P2
2023/02/16 00:00:21;;;;;;;28.33;12.80;;;-1.00;99.90;-1.40;101376.00;;;;4890411;28;88553;-68
2023/02/16 00:02:47;;;;;;;23.37;12.07;;;-1.00;99.90;-1.40;101361.00;;;;4891388;28;88231;-68
2023/02/16 00:05:26;;;;;;;31.00;13.80;;;-1.00;99.90;-1.40;101357.00;;;;4888527;28;88002;-67
2023/02/16 00:07:53;;;;;;;25.33;13.33;;;-0.90;99.90;-1.50;101351.00;;;;4892959;28;99515;-68
2023/02/16 00:10:20;;;;;;;22.77;12.37;;;-0.90;99.90;-1.50;101343.00;;;;4892422;28;91138;-67
2023/02/16 00:15:30;;;;;;;25.47;13.03;;;-1.10;99.90;-1.50;101337.00;;;;4891568;28;89081;-68
2023/02/16 00:17:59;;;;;;;31.20;14.07;;;-1.10;99.90;-1.50;101338.00;;;;4890827;28;108210;-67
2023/02/16 00:20:25;;;;;;;24.27;11.77;;;-1.00;99.90;-1.50;101334.00;;;;4889251;28;89233;-67
2023/02/16 00:22:51;;;;;;;24.83;12.80;;;-1.10;99.90;-1.50;101344.00;;;;4890411;28;118329;-67
2023/02/16 00:25:17;;;;;;;24.63;13.07;;;-1.10;99.90;-1.50;101337.00;;;;4890088;28;95333;-68
2023/02/16 00:27:43;;;;;;;28.20;13.50;;;-1.10;99.90;-1.60;101341.00;;;;4889180;28;100644;-68
2023/02/16 00:30:17;;;;;;;26.07;11.83;;;-1.10;99.90;-1.60;101330.00;;;;4891311;28;116888;-68
2023/02/16 00:32:43;;;;;;;29.20;13.27;;;-1.10;99.90;-1.60;101328.00;;;;4889722;28;102937;-67
2023/02/16 00:35:13;;;;;;;25.33;13.17;;;-1.00;99.90;-1.60;101332.00;;;;4893474;28;87925;-67
2023/02/16 00:37:39;;;;;;;24.53;13.27;;;-1.10;99.90;-1.60;101331.00;;;;4890591;28;88152;-67
2023/02/16 00:40:06;;;;;;;29.70;14.47;;;-1.20;99.90;-1.60;101323.00;;;;4893005;28;117957;-67
2023/02/16 00:42:33;;;;;;;30.80;13.70;;;-1.20;99.90;-1.60;101322.00;;;;4891057;28;88226;-67
2023/02/16 00:45:00;;;;;;;23.40;13.10;;;-1.20;99.90;-1.60;101319.00;;;;4890133;28;99560;-67
2023/02/16 00:47:36;;;;;;;20.00;11.30;;;-1.20;99.90;-1.60;101315.00;;;;4893352;28;108487;-67
2023/02/16 00:50:14;;;;;;;26.20;10.10;;;-1.20;99.90;-1.60;101322.00;;;;4919919;28;88371;-69
2023/02/16 00:52:45;;;;;;;21.40;10.03;;;-1.00;99.90;-1.60;101318.00;;;;4891076;28;88793;-67
2023/02/16 00:55:23;;;;;;;22.17;12.00;;;-1.20;99.90;-1.60;101312.00;;;;4891078;28;87739;-69
2023/02/16 00:58:07;;;;;;;21.77;11.63;;;-1.10;99.90;-1.60;101333.00;;;;4891062;28;98244;-69
2023/02/16 01:00:37;;;;;;;18.83;10.57;;;-1.20;99.90;-1.50;101339.00;;;;4893109;28;88049;-66
2023/02/16 01:03:10;;;;;;;22.00;11.77;;;-1.10;99.90;-1.50;101333.00;;;;4902836;28;88230;-68
2023/02/16 01:05:36;;;;;;;26.23;12.80;;;-1.10;99.90;-1.50;101336.00;;;;4892392;28;90255;-68
2023/02/16 01:13:27;;;;;;;22.27;11.10;;;-1.10;99.90;-1.50;101326.00;;;;4887491;28;87965;-68
2023/02/16 01:15:53;;;;;;;18.57;11.07;;;-1.10;99.90;-1.50;101334.00;;;;4891141;28;88953;-68
2023/02/16 01:18:20;;;;;;;20.23;11.10;;;-1.10;99.90;-1.50;101323.00;;;;4889776;28;107335;-67
2023/02/16 01:20:47;;;;;;;21.73;12.07;;;-1.10;99.90;-1.50;101329.00;;;;4892290;28;88197;-66
2023/02/16 01:23:12;;;;;;;18.53;10.70;;;-1.20;99.90;-1.50;101319.00;;;;4890993;28;98440;-67
2023/02/16 01:25:39;;;;;;;17.83;10.67;;;-1.00;99.90;-1.40;101321.00;;;;4890218;28;110936;-68
2023/02/16 01:28:18;;;;;;;23.53;11.30;;;-1.00;99.90;-1.40;101314.00;;;;4893389;28;107130;-68
2023/02/16 01:30:44;;;;;;;18.43;10.47;;;-1.00;99.90;-1.40;101314.00;;;;4892122;28;89758;-67
2023/02/16 01:33:09;;;;;;;17.13;10.17;;;-1.00;99.90;-1.40;101315.00;;;;4896118;28;105092;-68
2023/02/16 01:35:35;;;;;;;20.40;10.53;;;-1.10;99.90;-1.40;101320.00;;;;4922196;28;113677;-67
2023/02/16 01:38:01;;;;;;;21.03;10.63;;;-1.00;99.90;-1.40;101319.00;;;;4889669;28;108836;-67
2023/02/16 01:40:33;;;;;;;23.17;10.97;;;-0.90;99.90;-1.40;101322.00;;;;4892658;28;106381;-67
2023/02/16 01:43:40;;;;;;;21.50;10.90;;;-1.10;99.90;-1.50;101323.00;;;;4893869;28;89116;-67
2023/02/16 01:46:14;;;;;;;19.40;9.20;;;-1.10;99.90;-1.40;101328.00;;;;4907507;28;87694;-67
2023/02/16 01:48:40;;;;;;;18.93;10.27;;;-1.00;99.90;-1.40;101323.00;;;;4891515;28;87055;-67
2023/02/16 01:51:20;;;;;;;19.67;10.70;;;-1.00;99.90;-1.50;101321.00;;;;4893090;28;118894;-67
2023/02/16 01:53:52;;;;;;;23.20;10.80;;;-1.10;99.90;-1.50;101314.00;;;;4905660;28;93552;-66
2023/02/16 01:56:36;;;;;;;15.10;9.30;;;-1.00;99.90;-1.60;101322.00;;;;4903991;28;104434;-67
2023/02/16 01:59:16;;;;;;;25.30;11.40;;;-1.10;99.90;-1.60;101333.00;;;;4910051;28;91550;-67
2023/02/16 02:02:00;;;;;;;16.67;9.20;;;-1.10;99.90;-1.60;101326.00;;;;4894453;28;88144;-67
2023/02/16 02:07:54;;;;;;;20.33;9.80;;;-1.00;99.90;-1.60;101325.00;;;;4904379;28;88015;-66
2023/02/16 02:10:30;;;;;;;16.20;10.30;;;-1.20;99.90;-1.60;101317.00;;;;4893822;28;87946;-67
2023/02/16 02:13:19;;;;;;;23.80;10.07;;;-1.20;99.90;-1.70;101317.00;;;;4892880;28;109411;-66
2023/02/16 02:15:45;;;;;;;18.33;10.90;;;-1.30;99.90;-1.70;101302.00;;;;4896237;28;88105;-66
2023/02/16 02:18:11;;;;;;;25.37;11.33;;;-1.20;99.90;-1.70;101306.00;;;;4894370;28;113421;-67
2023/02/16 02:24:06;;;;;;;23.40;9.77;;;-1.20;99.90;-1.70;101302.00;;;;4893435;28;89535;-66
2023/02/16 02:27:03;;;;;;;21.90;10.90;;;-1.40;99.90;-1.70;101309.00;;;;4895075;28;89399;-67
2023/02/16 02:29:42;;;;;;;23.27;11.57;;;-1.30;99.90;-1.70;101296.00;;;;4907761;28;88102;-66
2023/02/16 02:32:28;;;;;;;11.13;8.57;;;-1.30;99.90;-1.70;101305.00;;;;4893285;28;102951;-66
2023/02/16 02:35:42;;;;;;;21.93;11.17;;;-1.30;99.90;-1.80;101296.00;;;;4906892;28;109495;-66
2023/02/16 02:38:16;;;;;;;15.93;9.23;;;-1.30;99.90;-1.80;101299.00;;;;4907894;28;88464;-66
2023/02/16 02:42:02;;;;;;;17.80;9.27;;;-1.40;99.90;-1.80;101307.00;;;;4907502;28;88173;-69
2023/02/16 02:44:10;;;;;;;20.30;9.60;;;-1.30;99.90;-1.80;101306.00;;;;4903648;28;87106;-66
2023/02/16 02:46:36;;;;;;;20.90;10.70;;;-0.20;99.90;-1.80;101299.00;;;;4905949;28;117238;-65
2023/02/16 02:49:02;;;;;;;20.93;11.33;;;-1.30;99.90;-1.80;101297.00;;;;4907243;28;119873;-66
2023/02/16 02:51:28;;;;;;;22.93;10.73;;;-1.30;99.90;-1.80;101303.00;;;;4893176;28;88896;-66
2023/02/16 03:03:18;;;;;;;16.87;9.70;;;-1.30;99.90;-1.90;101303.00;;;;4895018;28;88019;-65
2023/02/16 03:06:06;;;;;;;19.57;10.57;;;-1.40;99.90;-1.90;101305.00;;;;4893396;28;87926;-66
2023/02/16 03:08:35;;;;;;;18.43;9.83;;;-1.50;99.90;-1.90;101302.00;;;;4891559;28;101419;-66
2023/02/16 03:14:04;;;;;;;24.20;9.73;;;-1.40;99.90;-1.90;101303.00;;;;4907151;28;89480;-67
2023/02/16 03:16:42;;;;;;;23.70;11.23;;;-1.50;99.90;-2.00;101299.00;;;;4907602;28;88104;-66
2023/02/16 03:30:16;;;;;;;23.30;10.13;;;-1.60;99.90;-2.00;101310.00;;;;4906923;28;88029;-66
2023/02/16 03:32:43;;;;;;;19.77;10.63;;;-1.60;99.90;-2.10;101303.00;;;;4891050;28;117186;-66
2023/02/16 03:35:11;;;;;;;20.83;9.57;;;-1.60;99.90;-2.10;101309.00;;;;4906371;28;105375;-66
2023/02/16 03:37:41;;;;;;;19.80;10.83;;;-1.50;99.90;-2.10;101314.00;;;;4907662;28;87186;-66
2023/02/16 03:40:31;;;;;;;21.97;11.27;;;-1.70;99.90;-2.10;101318.00;;;;4893694;28;89384;-66
2023/02/16 03:43:05;;;;;;;25.80;9.53;;;-1.70;99.90;-2.10;101302.00;;;;4905166;28;87918;-66
2023/02/16 03:45:34;;;;;;;24.47;11.40;;;-1.70;99.90;-2.10;101303.00;;;;4894774;28;88830;-66
2023/02/16 03:48:00;;;;;;;19.90;10.43;;;-1.70;99.90;-2.10;101306.00;;;;4909558;28;88325;-66
2023/02/16 03:50:26;;;;;;;20.87;11.27;;;-1.70;99.90;-2.20;101303.00;;;;4892216;28;108117;-66
2023/02/16 03:53:05;;;;;;;22.90;10.60;;;-1.60;99.90;-2.20;101305.00;;;;4890976;28;88685;-67
2023/02/16 03:55:34;;;;;;;19.50;9.63;;;-1.70;99.90;-2.20;101298.00;;;;4891028;28;87878;-67
2023/02/16 03:58:01;;;;;;;15.20;9.37;;;-1.70;99.90;-2.30;101304.00;;;;4895799;28;90133;-66
2023/02/16 04:00:27;;;;;;;19.13;10.33;;;-1.80;99.90;-2.30;101294.00;;;;4893293;28;88936;-66
2023/02/16 04:02:52;;;;;;;19.63;10.43;;;-1.70;99.90;-2.30;101298.00;;;;4891169;28;89207;-66
2023/02/16 04:05:18;;;;;;;19.30;10.73;;;-1.80;99.90;-2.30;101291.00;;;;4894454;28;112290;-66
2023/02/16 04:07:44;;;;;;;21.33;10.50;;;-1.90;99.90;-2.30;101287.00;;;;4892358;28;88067;-66
2023/02/16 04:10:10;;;;;;;19.57;9.47;;;-1.80;99.90;-2.30;101291.00;;;;4892880;28;118905;-66
2023/02/16 04:12:35;;;;;;;23.60;11.47;;;-1.80;99.90;-2.30;101290.00;;;;4890934;28;119180;-66
2023/02/16 04:15:12;;;;;;;20.37;9.63;;;-1.90;99.90;-2.30;101296.00;;;;4888252;28;109268;-67
2023/02/16 04:17:37;;;;;;;16.17;10.20;;;-1.80;99.90;-2.40;101276.00;;;;4907382;28;87892;-67
2023/02/16 04:20:05;;;;;;;16.27;8.47;;;-1.90;99.90;-2.40;101297.00;;;;4892390;28;115792;-66
2023/02/16 04:22:30;;;;;;;16.73;8.80;;;-1.80;99.90;-2.30;101293.00;;;;4892569;28;88526;-66
2023/02/16 04:24:56;;;;;;;22.53;8.93;;;-1.90;99.90;-2.40;101282.00;;;;4892391;28;109485;-67
2023/02/16 04:27:22;;;;;;;19.70;10.80;;;-1.90;99.90;-2.40;101289.00;;;;4893473;28;108003;-67
2023/02/16 04:29:47;;;;;;;18.17;10.07;;;-1.90;99.90;-2.40;101286.00;;;;4888906;28;106120;-66
2023/02/16 04:32:13;;;;;;;24.20;11.43;;;-2.00;99.90;-2.40;101286.00;;;;4891598;28;100628;-66
2023/02/16 04:34:39;;;;;;;19.77;8.33;;;-2.10;99.90;-2.40;101299.00;;;;4892293;28;113630;-66
2023/02/16 04:37:04;;;;;;;21.27;10.37;;;-2.00;99.90;-2.40;101293.00;;;;4891046;28;107805;-66
2023/02/16 04:39:31;;;;;;;20.90;9.97;;;-2.00;99.90;-2.40;101292.00;;;;4890294;28;118784;-66
2023/02/16 04:41:56;;;;;;;19.93;9.50;;;-2.00;99.90;-2.40;101290.00;;;;4892879;28;88935;-66
2023/02/16 04:44:22;;;;;;;17.37;9.23;;;-2.10;99.90;-2.40;101283.00;;;;4893442;28;112771;-66
2023/02/16 04:46:48;;;;;;;19.93;9.50;;;-2.00;99.90;-2.50;101287.00;;;;4892719;28;87777;-66
2023/02/16 04:49:14;;;;;;;18.77;9.80;;;-2.00;99.90;-2.40;101292.00;;;;4891461;28;87911;-66
2023/02/16 04:51:39;;;;;;;20.37;10.03;;;-1.70;99.90;-2.40;101284.00;;;;4884989;28;103988;-66
2023/02/16 04:54:06;;;;;;;17.17;9.47;;;-2.10;99.90;-2.40;101286.00;;;;4902821;28;110057;-66
2023/02/16 04:56:32;;;;;;;23.77;10.73;;;-2.00;99.90;-2.50;101298.00;;;;4891187;28;88140;-66
2023/02/16 04:58:57;;;;;;;20.53;10.83;;;-1.90;99.90;-2.50;101304.00;;;;4889842;28;116775;-66
2023/02/16 05:01:27;;;;;;;15.83;10.23;;;-2.10;99.90;-2.50;101296.00;;;;4895135;28;118169;-66
2023/02/16 05:03:53;;;;;;;17.53;8.83;;;-2.00;99.90;-2.50;101301.00;;;;4888846;28;87979;-67
2023/02/16 05:06:19;;;;;;;22.00;10.77;;;-2.10;99.90;-2.50;101294.00;;;;4895120;28;88828;-66
2023/02/16 05:08:45;;;;;;;20.80;11.13;;;-2.00;99.90;-2.50;101295.00;;;;4895337;28;88829;-66
2023/02/16 05:16:43;;;;;;;19.70;10.13;;;-2.00;99.90;-2.50;101285.00;;;;4895541;28;86928;-66
2023/02/16 05:19:08;;;;;;;46.73;26.27;;;-2.00;99.90;-2.50;101287.00;;;;4908714;28;87980;-66
2023/02/16 05:21:34;;;;;;;26.00;12.07;;;-2.00;99.90;-2.50;101298.00;;;;4891968;28;113092;-66
2023/02/16 05:24:10;;;;;;;22.07;10.00;;;-2.10;99.90;-2.50;101280.00;;;;4896259;28;88975;-66
2023/02/16 05:26:40;;;;;;;17.00;9.90;;;-1.90;99.90;-2.40;101295.00;;;;4910213;28;87813;-66
2023/02/16 05:29:06;;;;;;;17.93;10.00;;;-2.00;99.90;-2.40;101290.00;;;;4894866;28;88908;-67
2023/02/16 05:31:32;;;;;;;17.27;9.33;;;-1.90;99.90;-2.40;101285.00;;;;4896987;28;88895;-66
2023/02/16 05:33:58;;;;;;;20.93;9.63;;;-2.00;99.90;-2.40;101294.00;;;;4894868;28;113770;-66
2023/02/16 05:36:24;;;;;;;24.50;9.90;;;-1.20;99.90;-2.40;101289.00;;;;4894958;28;110113;-66
2023/02/16 05:38:50;;;;;;;20.57;10.43;;;-1.90;99.90;-2.30;101289.00;;;;4894402;28;117549;-67
2023/02/16 05:41:25;;;;;;;13.27;8.40;;;-1.90;99.90;-2.40;101277.00;;;;4892479;28;106618;-66
2023/02/16 05:43:57;;;;;;;12.00;8.20;;;-1.90;99.90;-2.30;101282.00;;;;4894016;28;87883;-67
2023/02/16 05:46:24;;;;;;;19.47;9.80;;;-2.00;99.90;-2.30;101283.00;;;;4896034;28;87884;-67
2023/02/16 05:48:51;;;;;;;16.97;10.20;;;-1.90;99.90;-2.30;101289.00;;;;4905410;28;89001;-66
2023/02/16 05:51:17;;;;;;;16.67;9.17;;;-1.90;99.90;-2.30;101290.00;;;;4892451;28;88712;-67
2023/02/16 05:53:43;;;;;;;17.37;9.37;;;-1.80;99.90;-2.30;101291.00;;;;4894481;28;88138;-65
2023/02/16 05:56:10;;;;;;;21.47;8.93;;;-1.80;99.90;-2.20;101296.00;;;;4894482;28;87999;-66
2023/02/16 05:58:36;;;;;;;16.53;8.90;;;-1.80;99.90;-2.20;101304.00;;;;4895527;28;88168;-68
2023/02/16 06:01:01;;;;;;;16.47;9.10;;;-1.80;99.90;-2.30;101296.00;;;;4891730;28;90206;-67
2023/02/16 06:03:27;;;;;;;22.33;9.60;;;-0.90;99.90;-2.20;101320.00;;;;4891490;28;87581;-67
2023/02/16 06:05:55;;;;;;;20.43;9.73;;;-1.80;99.90;-2.20;101313.00;;;;4894846;28;87101;-68
2023/02/16 06:08:21;;;;;;;22.60;10.93;;;-1.80;99.90;-2.20;101306.00;;;;4892279;28;90232;-67
2023/02/16 06:10:49;;;;;;;19.17;10.10;;;-1.70;99.90;-2.20;101301.00;;;;4890080;28;117690;-67
2023/02/16 06:13:15;;;;;;;20.83;9.50;;;-1.80;99.90;-2.20;101311.00;;;;4895978;28;88879;-67
2023/02/16 06:15:42;;;;;;;16.03;10.27;;;-1.70;99.90;-2.20;101317.00;;;;4896367;28;99976;-67
2023/02/16 06:18:10;;;;;;;16.53;8.83;;;-1.80;99.90;-2.20;101305.00;;;;4896150;28;88875;-67
2023/02/16 06:20:39;;;;;;;16.07;8.10;;;-1.80;99.90;-2.20;101307.00;;;;4896486;28;87961;-67
2023/02/16 06:23:07;;;;;;;19.57;10.30;;;-1.80;99.90;-2.20;101304.00;;;;4909079;28;87825;-67
2023/02/16 06:25:33;;;;;;;19.53;9.40;;;-1.80;99.90;-2.20;101310.00;;;;4889055;28;87821;-67
2023/02/16 06:27:59;;;;;;;20.90;10.57;;;-1.80;99.90;-2.20;101311.00;;;;4893537;28;118436;-67
2023/02/16 06:30:25;;;;;;;13.83;8.57;;;-1.70;99.90;-2.20;101304.00;;;;4892976;28;117448;-67
2023/02/16 06:32:50;;;;;;;19.43;10.10;;;-1.80;99.90;-2.20;101308.00;;;;4891616;28;105429;-67
2023/02/16 06:35:16;;;;;;;20.67;9.80;;;-1.70;99.90;-2.20;101297.00;;;;4893267;28;108774;-67
2023/02/16 06:37:42;;;;;;;19.80;12.23;;;-1.80;99.90;-2.20;101304.00;;;;4894283;28;93433;-67
2023/02/16 06:40:09;;;;;;;19.60;11.30;;;-1.80;99.90;-2.20;101292.00;;;;4891953;28;118873;-65
2023/02/16 06:42:36;;;;;;;21.73;11.77;;;-1.80;99.90;-2.20;101296.00;;;;4895803;28;106349;-66
2023/02/16 06:45:03;;;;;;;19.67;11.83;;;-1.70;99.90;-2.20;101291.00;;;;4892054;28;87862;-66
2023/02/16 06:47:29;;;;;;;20.20;11.27;;;-1.70;99.90;-2.10;101306.00;;;;4892165;28;110129;-66
2023/02/16 06:49:55;;;;;;;19.37;10.90;;;-1.70;99.90;-2.10;101308.00;;;;4894261;28;87844;-65
2023/02/16 06:52:20;;;;;;;26.00;11.63;;;-1.70;99.90;-2.10;101312.00;;;;4893376;28;113158;-66
2023/02/16 06:54:46;;;;;;;19.43;10.83;;;-0.70;99.90;-2.00;101311.00;;;;4890186;28;108528;-66
2023/02/16 06:57:12;;;;;;;24.47;12.00;;;-1.60;99.90;-1.90;101313.00;;;;4891057;28;117423;-66
2023/02/16 06:59:38;;;;;;;25.80;12.53;;;-1.60;99.90;-1.80;101320.00;;;;4892463;28;116324;-66
2023/02/16 07:02:04;;;;;;;30.67;17.93;;;-1.50;99.90;-1.80;101325.00;;;;4895418;28;103345;-65
2023/02/16 07:04:29;;;;;;;19.90;12.00;;;-1.40;99.90;-1.70;101321.00;;;;4894974;28;109044;-67
2023/02/16 07:06:55;;;;;;;18.30;12.20;;;-1.30;99.90;-1.70;101306.00;;;;4892792;28;117472;-65
2023/02/16 07:09:21;;;;;;;17.57;11.50;;;-1.30;99.90;-1.60;101311.00;;;;4892417;28;88282;-66
2023/02/16 07:11:47;;;;;;;25.43;12.57;;;-1.20;99.90;-1.60;101308.00;;;;4893486;28;112113;-66
2023/02/16 07:14:13;;;;;;;25.43;11.77;;;-1.10;99.90;-1.40;101306.00;;;;4892253;28;88292;-66
2023/02/16 07:16:39;;;;;;;21.27;11.43;;;-1.00;99.90;-1.30;101296.00;;;;4894664;28;89380;-65
2023/02/16 07:19:05;;;;;;;16.70;11.37;;;-0.20;99.90;-1.10;101308.00;;;;4890469;28;117324;-66
2023/02/16 07:21:31;;;;;;;20.03;10.97;;;-0.80;99.90;-0.90;101304.00;;;;4891740;28;87730;-66
2023/02/16 07:23:57;;;;;;;17.87;10.87;;;-0.50;99.90;-0.80;101302.00;;;;4895752;28;87912;-66
2023/02/16 07:26:22;;;;;;;17.03;9.20;;;-0.50;99.90;-0.60;101307.00;;;;4889424;28;118582;-67
2023/02/16 07:28:48;;;;;;;15.90;10.20;;;-0.30;99.90;-0.50;101306.00;;;;4891355;28;117222;-66
2023/02/16 07:31:15;;;;;;;17.37;10.57;;;-0.10;99.90;-0.30;101312.00;;;;4891795;28;87899;-67
2023/02/16 07:33:41;;;;;;;18.27;11.10;;;0.00;99.90;-0.10;101314.00;;;;4894569;28;87699;-66
2023/02/16 07:36:09;;;;;;;22.83;12.47;;;0.20;99.90;0.00;101319.00;;;;4891456;28;88890;-66
2023/02/16 07:38:34;;;;;;;18.23;11.07;;;0.90;99.90;0.10;101316.00;;;;4889528;28;109508;-65
2023/02/16 07:41:01;;;;;;;26.80;13.40;;;0.50;99.90;0.30;101322.00;;;;4889426;28;87888;-65
2023/02/16 07:43:26;;;;;;;19.50;12.07;;;0.60;99.90;0.50;101340.00;;;;4893309;28;87374;-65
2023/02/16 07:45:52;;;;;;;20.57;12.87;;;0.80;99.90;0.60;101339.00;;;;4889069;28;88977;-65
2023/02/16 07:48:18;;;;;;;23.93;14.33;;;0.80;99.90;0.80;101340.00;;;;4892135;28;87927;-66
2023/02/16 07:50:44;;;;;;;24.73;14.50;;;1.10;99.90;1.10;101348.00;;;;4892128;28;94869;-67
2023/02/16 07:53:09;;;;;;;19.87;12.13;;;1.40;99.90;1.40;101336.00;;;;4888607;28;110265;-66
2023/02/16 07:55:40;;;;;;;14.13;10.17;;;1.60;99.90;1.70;101345.00;;;;4890444;28;117833;-65
2023/02/16 07:58:06;;;;;;;11.67;7.63;;;2.00;99.90;2.00;101340.00;;;;4889297;28;87990;-66
2023/02/16 08:00:32;;;;;;;16.60;8.90;;;2.20;99.90;2.30;101341.00;;;;4888509;28;104440;-66
2023/02/16 08:02:57;;;;;;;10.87;7.20;;;2.60;99.90;2.70;101350.00;;;;4889976;28;109268;-66
2023/02/16 08:05:23;;;;;;;13.30;8.90;;;2.80;99.90;3.00;101332.00;;;;4892725;28;116053;-66
2023/02/16 08:07:49;;;;;;;10.50;7.03;;;3.30;99.90;3.40;101348.00;;;;4889024;28;116689;-66
2023/02/16 08:10:15;;;;;;;11.30;7.27;;;3.50;99.90;3.80;101340.00;;;;4894002;28;112223;-66
2023/02/16 08:12:41;;;;;;;8.97;6.87;;;3.90;99.90;4.20;101333.00;;;;4892529;28;89184;-66
2023/02/16 08:15:08;;;;;;;12.37;7.67;;;4.30;99.90;4.50;101325.00;;;;4886894;28;90031;-68
2023/02/16 08:17:35;;;;;;;12.33;7.67;;;4.60;99.90;4.90;101332.00;;;;4891019;28;89462;-66
2023/02/16 08:20:01;;;;;;;11.83;7.47;;;4.90;99.90;5.20;101335.00;;;;4891884;28;87874;-66
2023/02/16 08:22:28;;;;;;;13.03;8.03;;;6.00;99.90;5.60;101324.00;;;;4892462;28;87949;-65
2023/02/16 08:24:53;;;;;;;12.03;6.73;;;5.70;99.90;5.90;101335.00;;;;4892093;28;88136;-65
2023/02/16 08:27:20;;;;;;;12.60;7.93;;;5.90;99.90;6.10;101325.00;;;;4893482;28;89300;-66
2023/02/16 08:29:46;;;;;;;15.83;7.97;;;7.10;99.90;6.50;101333.00;;;;4892110;28;87977;-67
2023/02/16 08:32:12;;;;;;;11.53;7.07;;;7.40;99.90;6.90;101326.00;;;;4896423;28;102633;-67
2023/02/16 08:34:38;;;;;;;14.07;7.33;;;6.90;99.90;7.20;101308.00;;;;4893735;28;88174;-68
2023/02/16 08:37:04;;;;;;;16.10;7.10;;;7.30;99.90;7.30;101321.00;;;;4893747;28;117013;-67
2023/02/16 08:39:31;;;;;;;12.00;7.40;;;7.90;99.90;7.60;101322.00;;;;4894912;28;97039;-68
2023/02/16 08:41:59;;;;;;;14.47;7.37;;;7.70;99.90;7.80;101321.00;;;;4898510;28;88248;-68
2023/02/16 08:44:27;;;;;;;14.27;7.10;;;7.90;99.90;8.00;101324.00;;;;4897618;28;89018;-68
2023/02/16 08:46:57;;;;;;;9.03;6.33;;;8.10;99.90;8.20;101324.00;;;;4897298;28;88863;-68
2023/02/16 08:49:24;;;;;;;14.93;7.23;;;8.40;99.90;8.40;101327.00;;;;4897991;28;87722;-69
2023/02/16 08:51:54;;;;;;;16.47;7.40;;;8.50;99.90;8.60;101338.00;;;;4893823;28;90772;-69
2023/02/16 08:54:28;;;;;;;14.87;8.20;;;8.70;99.90;8.80;101329.00;;;;4897697;28;96156;-67
2023/02/16 08:56:56;;;;;;;14.47;7.80;;;8.90;99.90;8.90;101333.00;;;;4898981;28;87889;-68
2023/02/16 08:59:23;;;;;;;14.03;7.97;;;9.10;99.90;9.00;101341.00;;;;4893964;28;87674;-69
2023/02/16 09:01:49;;;;;;;13.80;7.43;;;9.10;99.90;9.10;101341.00;;;;4908216;28;95582;-67
2023/02/16 09:04:17;;;;;;;15.93;8.17;;;9.20;99.90;9.20;101331.00;;;;4894013;28;90031;-67
2023/02/16 09:06:47;;;;;;;13.47;7.27;;;9.40;99.90;9.40;101335.00;;;;4897792;28;88595;-67
2023/02/16 09:09:13;;;;;;;19.93;8.17;;;9.40;99.90;9.50;101332.00;;;;4897579;28;87807;-68
2023/02/16 09:11:39;;;;;;;17.13;8.10;;;9.60;99.90;9.50;101320.00;;;;4895034;28;87831;-67
2023/02/16 09:14:05;;;;;;;11.33;7.37;;;9.70;99.90;9.60;101317.00;;;;4894827;28;87971;-67
2023/02/16 09:16:37;;;;;;;18.33;8.57;;;9.70;99.80;9.70;101311.00;;;;4896940;28;88790;-68
2023/02/16 09:19:03;;;;;;;9.73;7.00;;;9.80;99.40;9.90;101313.00;;;;4897193;28;88167;-67
2023/02/16 09:21:31;;;;;;;13.43;8.77;;;10.00;98.60;9.90;101321.00;;;;4897025;28;86943;-67
2023/02/16 09:23:59;;;;;;;10.63;7.33;;;9.90;97.10;10.00;101326.00;;;;4897655;28;87981;-68
2023/02/16 09:26:28;;;;;;;15.07;7.67;;;10.10;97.80;10.20;101335.00;;;;4905613;28;88978;-67
2023/02/16 09:28:53;;;;;;;12.93;7.87;;;10.20;98.20;10.30;101339.00;;;;4908891;28;88879;-67
2023/02/16 09:31:35;;;;;;;11.70;7.73;;;10.40;96.70;10.20;101334.00;;;;4894075;28;108524;-67
2023/02/16 09:34:06;;;;;;;13.37;7.93;;;10.40;95.00;10.00;101340.00;;;;4892237;28;88833;-67
2023/02/16 09:36:33;;;;;;;15.93;8.70;;;10.20;94.70;9.80;101330.00;;;;4891958;28;88288;-68
2023/02/16 09:39:01;;;;;;;13.27;7.30;;;10.10;95.40;9.70;101327.00;;;;4894963;28;87860;-68
2023/02/16 09:41:45;;;;;;;13.27;6.93;;;9.90;95.40;9.60;101316.00;;;;4894851;28;88079;-68
2023/02/16 09:44:49;;;;;;;11.87;7.20;;;9.80;96.20;9.60;101336.00;;;;4893862;28;119216;-68
2023/02/16 09:47:28;;;;;;;11.27;7.43;;;9.80;96.70;9.60;101325.00;;;;4895589;28;87186;-67
2023/02/16 09:49:57;;;;;;;11.43;8.37;;;9.70;95.00;9.40;101337.00;;;;4906033;28;88682;-67
2023/02/16 09:52:35;;;;;;;12.97;7.70;;;9.70;94.60;9.50;101351.00;;;;4908063;28;87944;-67
2023/02/16 09:55:07;;;;;;;13.40;8.33;;;9.60;94.90;9.70;101336.00;;;;4878870;28;91314;-68
2023/02/16 09:57:57;;;;;;;13.47;8.23;;;9.80;94.90;9.90;101337.00;;;;4896981;28;88128;-67
2023/02/16 10:00:48;;;;;;;16.93;8.10;;;9.90;94.70;10.10;101335.00;;;;4910695;28;88173;-68
2023/02/16 10:03:44;;;;;;;12.33;7.50;;;10.10;93.90;10.40;101325.00;;;;4909822;28;88020;-68
2023/02/16 10:06:13;;;;;;;14.20;8.83;;;10.40;94.00;10.70;101330.00;;;;4896819;28;88044;-67
2023/02/16 10:08:45;;;;;;;13.50;7.53;;;10.70;93.70;11.00;101330.00;;;;4890798;28;117867;-68
2023/02/16 10:11:37;;;;;;;17.60;9.07;;;10.90;93.60;11.30;101332.00;;;;4893075;28;94550;-68
2023/02/16 10:14:24;;;;;;;9.60;7.13;;;11.30;91.50;11.40;101337.00;;;;4897676;28;88274;-67
2023/02/16 10:17:19;;;;;;;16.43;9.13;;;11.40;90.40;11.50;101329.00;;;;4895940;28;88320;-67
2023/02/16 10:20:20;;;;;;;14.27;7.80;;;11.50;89.90;11.60;101326.00;;;;4912940;28;88247;-68
2023/02/16 10:23:29;;;;;;;10.80;6.87;;;11.70;88.30;11.80;101325.00;;;;4906588;28;88639;-67
2023/02/16 10:26:01;;;;;;;14.27;8.47;;;11.80;88.70;12.00;101318.00;;;;4892762;28;88233;-68
2023/02/16 10:28:45;;;;;;;13.07;6.67;;;12.00;87.50;12.00;101317.00;;;;4907592;28;88049;-67
2023/02/16 10:31:37;;;;;;;13.13;7.97;;;12.10;85.80;12.10;101326.00;;;;4891836;28;89259;-67
2023/02/16 10:34:47;;;;;;;11.97;6.67;;;12.20;84.00;12.20;101319.00;;;;4892847;28;87803;-68
2023/02/16 10:37:37;;;;;;;13.20;8.13;;;12.20;81.90;12.20;101319.00;;;;4896365;28;88015;-67
2023/02/16 10:40:33;;;;;;;14.70;8.63;;;12.30;81.20;12.30;101309.00;;;;4892942;28;88445;-67
2023/02/16 10:43:32;;;;;;;13.67;7.43;;;12.30;80.80;12.40;101306.00;;;;4907091;28;88713;-67
2023/02/16 10:46:00;;;;;;;13.60;7.80;;;12.40;79.90;12.40;101309.00;;;;4893422;28;87856;-67
2023/02/16 10:48:26;;;;;;;13.67;8.20;;;12.50;79.80;12.60;101314.00;;;;4892328;28;87952;-68
2023/02/16 10:51:02;;;;;;;11.23;7.80;;;12.60;79.80;12.70;101309.00;;;;4893177;28;96703;-68
2023/02/16 10:53:30;;;;;;;15.77;8.10;;;12.70;78.00;12.70;101310.00;;;;4890401;28;88087;-68
2023/02/16 10:55:57;;;;;;;13.80;8.60;;;12.70;76.90;12.70;101314.00;;;;4890137;28;109734;-67
2023/02/16 10:58:37;;;;;;;11.10;6.47;;;12.70;75.40;12.70;101317.00;;;;4892503;28;88031;-68
2023/02/16 11:01:15;;;;;;;16.80;7.63;;;12.70;75.80;12.60;101313.00;;;;4895989;28;88003;-67
2023/02/16 11:03:49;;;;;;;13.70;8.33;;;12.70;76.10;12.80;101304.00;;;;4904560;28;87724;-68
2023/02/16 11:06:18;;;;;;;13.47;8.17;;;12.80;76.60;12.90;101312.00;;;;4904112;28;104187;-68
2023/02/16 11:09:03;;;;;;;10.60;7.37;;;12.90;75.60;13.00;101315.00;;;;4894883;28;87219;-67
2023/02/16 11:11:38;;;;;;;12.20;7.23;;;13.00;76.70;13.10;101315.00;;;;4893148;28;88007;-67
2023/02/16 11:14:17;;;;;;;13.90;8.53;;;13.10;75.90;13.30;101315.00;;;;4906249;28;88723;-68
2023/02/16 11:16:44;;;;;;;10.60;6.73;;;13.30;75.80;13.50;101309.00;;;;4903355;28;88788;-68
2023/02/16 11:19:23;;;;;;;12.23;7.27;;;13.40;77.30;13.80;101306.00;;;;4894236;28;87986;-67
2023/02/16 11:21:55;;;;;;;15.95;7.93;;;13.60;77.20;14.00;101303.00;;;;4893928;28;88431;-67
2023/02/16 11:24:27;;;;;;;12.30;6.32;;;13.90;76.80;14.30;101303.00;;;;4891435;28;87756;-67
2023/02/16 11:27:11;;;;;;;11.02;7.13;;;14.10;74.90;14.40;101303.00;;;;4894339;28;88543;-68
2023/02/16 11:29:37;;;;;;;12.40;7.03;;;14.30;74.60;14.60;101291.00;;;;4894984;28;88155;-67
2023/02/16 11:32:15;;;;;;;13.57;7.78;;;14.40;73.10;14.70;101302.00;;;;4891706;28;116585;-68
2023/02/16 11:34:42;;;;;;;10.43;7.30;;;14.60;71.40;14.80;101293.00;;;;4909443;28;87235;-68
2023/02/16 11:37:43;;;;;;;10.07;6.47;;;14.70;70.90;14.90;101292.00;;;;4891231;28;87909;-67